Time;durP1;ratioP1;P1;durP2;ratioP2;P2;SDS_P1;SDS_P2;PMS_P1;PMS_P2;Temp;Humidity;BMP_temperature;BMP_pressure;BME280_temperature;BME280_humidity;BME280_pressure;Samples;Min_cycle;Max_cycle;Signal;HPM_P1;HPM_P2
2021/01/05 00:00:42;;;;;;;49.70;25.50;;;1.70;99.90;;;;;;5102713;28;20201;-82
2021/01/05 00:03:08;;;;;;;47.58;26.85;;;1.60;99.90;;;;;;5101938;28;20222;-83
2021/01/05 00:05:35;;;;;;;47.25;25.35;;;1.80;99.90;;;;;;5101322;28;20673;-83
2021/01/05 00:08:01;;;;;;;39.55;24.25;;;1.80;99.90;;;;;;5101972;28;20576;-84
2021/01/05 00:10:28;;;;;;;48.55;28.77;;;1.80;99.90;;;;;;5102038;28;20201;-82
2021/01/05 00:12:55;;;;;;;46.33;22.33;;;1.60;99.90;;;;;;5101860;28;20294;-80
2021/01/05 00:15:21;;;;;;;42.67;24.45;;;1.60;99.90;;;;;;5100594;28;20204;-81
2021/01/05 00:17:48;;;;;;;43.95;23.58;;;1.50;99.90;;;;;;5116162;28;20228;-80
2021/01/05 00:20:18;;;;;;;44.33;25.80;;;1.60;99.90;;;;;;5112551;28;20208;-82
2021/01/05 00:22:45;;;;;;;44.85;23.80;;;1.60;99.90;;;;;;5108436;28;20214;-81
2021/01/05 00:25:13;;;;;;;42.22;25.00;;;1.50;99.90;;;;;;5113887;28;20202;-82
2021/01/05 00:27:41;;;;;;;37.70;19.48;;;1.60;99.90;;;;;;5118507;28;20229;-81
2021/01/05 00:30:11;;;;;;;41.15;23.70;;;1.70;99.90;;;;;;5119282;28;20244;-81
2021/01/05 00:32:41;;;;;;;44.63;23.33;;;1.70;99.90;;;;;;5118590;28;20219;-81
2021/01/05 00:35:10;;;;;;;41.50;24.85;;;1.70;99.90;;;;;;5118960;28;20249;-81
2021/01/05 00:37:36;;;;;;;46.85;25.75;;;1.70;99.90;;;;;;5119168;28;20254;-81
2021/01/05 00:40:04;;;;;;;41.67;24.50;;;1.70;99.90;;;;;;5119456;28;20261;-81
2021/01/05 00:42:30;;;;;;;36.58;23.17;;;1.70;99.90;;;;;;5119144;28;20213;-81
2021/01/05 00:44:57;;;;;;;44.08;24.38;;;1.60;99.90;;;;;;5118735;28;20273;-82
2021/01/05 00:47:23;;;;;;;39.55;20.88;;;1.60;99.90;;;;;;5118683;28;20824;-81
2021/01/05 00:49:50;;;;;;;39.08;23.05;;;1.70;99.90;;;;;;5119272;28;20251;-80
2021/01/05 00:52:16;;;;;;;38.47;20.33;;;1.90;99.90;;;;;;5118437;28;20190;-82
2021/01/05 00:54:43;;;;;;;36.33;21.17;;;1.80;99.90;;;;;;5116176;28;20274;-81
2021/01/05 00:57:11;;;;;;;33.28;21.25;;;1.70;99.90;;;;;;5118165;28;20202;-81
2021/01/05 00:59:38;;;;;;;33.00;20.05;;;1.70;99.90;;;;;;5117417;28;20206;-81
2021/01/05 01:02:06;;;;;;;33.53;18.67;;;1.70;99.90;;;;;;5109554;28;20206;-81
2021/01/05 01:04:33;;;;;;;32.67;19.15;;;1.80;99.90;;;;;;5100685;28;20227;-82
2021/01/05 01:07:00;;;;;;;30.50;18.90;;;1.80;99.90;;;;;;5100222;28;20292;-83
2021/01/05 01:09:26;;;;;;;36.35;19.83;;;1.70;99.90;;;;;;5100158;28;20251;-83
2021/01/05 01:11:57;;;;;;;32.40;17.85;;;1.70;99.90;;;;;;5100540;28;20201;-83
2021/01/05 01:14:24;;;;;;;35.92;19.02;;;1.70;99.90;;;;;;5100373;28;20245;-83
2021/01/05 01:16:50;;;;;;;26.10;17.88;;;1.60;99.90;;;;;;5101721;28;20728;-83
2021/01/05 01:19:17;;;;;;;27.92;16.85;;;1.50;99.90;;;;;;5106673;28;20202;-83
2021/01/05 01:21:48;;;;;;;29.95;17.42;;;1.70;99.90;;;;;;5116491;28;20241;-81
2021/01/05 01:24:15;;;;;;;33.53;18.65;;;1.80;99.90;;;;;;5120068;28;20338;-83
2021/01/05 01:26:41;;;;;;;36.17;19.63;;;1.80;99.90;;;;;;5120022;28;20190;-82
2021/01/05 01:29:08;;;;;;;38.85;18.95;;;1.80;99.90;;;;;;5119893;28;20257;-82
2021/01/05 01:31:34;;;;;;;34.28;19.13;;;1.80;99.90;;;;;;5120010;28;20209;-82
2021/01/05 01:34:01;;;;;;;33.63;19.88;;;1.90;99.90;;;;;;5119536;28;20263;-83
2021/01/05 01:36:28;;;;;;;33.90;20.13;;;1.90;99.90;;;;;;5119784;28;20200;-83
2021/01/05 01:38:54;;;;;;;40.67;23.25;;;1.90;99.90;;;;;;5119737;28;20249;-83
2021/01/05 01:41:21;;;;;;;37.72;21.83;;;1.90;99.90;;;;;;5119531;28;20216;-83
2021/01/05 01:43:47;;;;;;;42.92;25.10;;;1.90;99.90;;;;;;5119184;28;20280;-82
2021/01/05 01:46:14;;;;;;;39.08;24.90;;;1.90;99.90;;;;;;5119256;28;20253;-83
2021/01/05 01:48:41;;;;;;;39.00;21.50;;;1.80;99.90;;;;;;5119267;28;20205;-82
2021/01/05 01:51:07;;;;;;;38.70;23.77;;;1.80;99.90;;;;;;5118866;28;20265;-82
2021/01/05 01:53:48;;;;;;;41.03;23.83;;;1.90;99.90;;;;;;5104240;28;20221;-83
2021/01/05 01:56:32;;;;;;;37.03;23.23;;;1.80;99.90;;;;;;5098053;28;20624;-84
2021/01/05 01:59:07;;;;;;;42.40;25.88;;;1.90;99.90;;;;;;5107390;28;20221;-82
2021/01/05 02:01:45;;;;;;;41.15;23.95;;;1.80;99.90;;;;;;5106461;28;20192;-84
2021/01/05 02:04:47;;;;;;;41.40;25.13;;;1.90;99.90;;;;;;5097850;28;20322;-84
2021/01/05 02:07:46;;;;;;;38.95;22.33;;;1.90;99.90;;;;;;5093648;28;20288;-84
2021/01/05 02:10:27;;;;;;;50.60;27.55;;;1.90;99.90;;;;;;5096889;28;20190;-84
2021/01/05 02:13:08;;;;;;;51.38;24.08;;;1.80;99.90;;;;;;5097069;28;20580;-84
2021/01/05 02:15:45;;;;;;;41.03;23.95;;;1.90;99.90;;;;;;5098720;28;20651;-84
2021/01/05 02:18:42;;;;;;;40.28;25.63;;;1.80;99.90;;;;;;5098254;28;20196;-84
2021/01/05 02:21:14;;;;;;;44.72;23.80;;;1.70;99.90;;;;;;5058129;28;20306;-84
2021/01/05 02:23:53;;;;;;;42.17;23.10;;;1.60;99.90;;;;;;5102224;28;20252;-84
2021/01/05 02:26:28;;;;;;;47.22;26.95;;;1.60;99.90;;;;;;5098931;28;20227;-84
2021/01/05 02:28:59;;;;;;;58.25;28.95;;;1.60;99.90;;;;;;5099887;28;20185;-81
2021/01/05 02:31:36;;;;;;;44.28;25.08;;;1.70;99.90;;;;;;5118086;28;20192;-82
2021/01/05 02:34:13;;;;;;;45.72;25.90;;;1.80;99.90;;;;;;5102973;28;20336;-84
2021/01/05 02:36:51;;;;;;;43.50;27.48;;;1.80;99.90;;;;;;5096556;28;20186;-84
2021/01/05 02:39:32;;;;;;;49.05;27.98;;;1.90;99.90;;;;;;5095290;28;20572;-84
2021/01/05 02:42:17;;;;;;;39.50;21.63;;;1.90;99.90;;;;;;5096040;28;20212;-84
2021/01/05 02:44:51;;;;;;;42.60;22.20;;;1.70;99.90;;;;;;5095744;28;20285;-85
2021/01/05 02:47:35;;;;;;;35.08;21.15;;;1.80;99.90;;;;;;5096882;28;20672;-84
2021/01/05 02:50:12;;;;;;;39.78;21.35;;;1.90;99.90;;;;;;5099059;28;20192;-84
2021/01/05 02:53:06;;;;;;;40.22;22.27;;;1.90;99.90;;;;;;5097993;28;20189;-84
2021/01/05 02:56:19;;;;;;;35.08;20.90;;;2.00;99.90;;;;;;5096254;28;20276;-84
2021/01/05 02:59:33;;;;;;;38.47;22.10;;;1.90;99.90;;;;;;5096444;28;20190;-84
2021/01/05 03:02:35;;;;;;;39.08;20.55;;;2.00;99.90;;;;;;5047314;28;20299;-84
2021/01/05 03:05:06;;;;;;;32.20;19.48;;;2.00;99.90;;;;;;5098400;28;20239;-85
2021/01/05 03:07:32;;;;;;;39.78;22.80;;;2.00;99.90;;;;;;5098177;28;20196;-84
2021/01/05 03:10:20;;;;;;;41.78;23.90;;;1.70;99.90;;;;;;5101110;28;20202;-84
2021/01/05 03:13:28;;;;;;;39.53;22.65;;;1.60;99.90;;;;;;5101782;28;20194;-85
2021/01/05 03:15:58;;;;;;;40.28;23.13;;;1.60;99.90;;;;;;5098313;28;20312;-85
2021/01/05 03:18:34;;;;;;;37.97;24.35;;;1.70;99.90;;;;;;5097919;28;20192;-85
2021/01/05 03:21:04;;;;;;;35.83;19.95;;;1.80;99.90;;;;;;5096247;28;20186;-85
2021/01/05 03:23:32;;;;;;;39.00;22.50;;;1.80;99.90;;;;;;5096854;28;20229;-85
2021/01/05 03:26:03;;;;;;;32.78;23.20;;;1.70;99.90;;;;;;5100226;28;20233;-85
2021/01/05 03:28:30;;;;;;;42.25;26.00;;;1.70;99.90;;;;;;5099600;28;20181;-85
2021/01/05 03:31:03;;;;;;;45.97;25.70;;;1.90;99.90;;;;;;5099621;28;20279;-85
2021/01/05 03:33:29;;;;;;;39.42;24.40;;;1.80;99.90;;;;;;5098999;28;20658;-85
2021/01/05 03:35:56;;;;;;;42.22;25.17;;;1.80;99.90;;;;;;5099041;28;20580;-84
2021/01/05 03:38:22;;;;;;;38.67;23.63;;;1.80;99.90;;;;;;5098861;28;20205;-85
2021/01/05 03:40:48;;;;;;;36.80;23.25;;;1.80;99.90;;;;;;5100216;28;20580;-85
2021/01/05 03:43:15;;;;;;;37.42;21.70;;;1.90;99.90;;;;;;5104104;28;20232;-85
2021/01/05 03:45:41;;;;;;;31.42;19.90;;;1.90;99.90;;;;;;5103602;28;20558;-85
2021/01/05 03:48:08;;;;;;;39.03;23.77;;;1.90;99.90;;;;;;5103038;28;20208;-84
2021/01/05 03:50:35;;;;;;;34.40;21.20;;;2.00;99.90;;;;;;5099371;28;20212;-85
2021/01/05 03:53:01;;;;;;;34.67;21.55;;;1.80;99.90;;;;;;5099036;28;20198;-85
2021/01/05 03:55:28;;;;;;;33.63;21.40;;;1.90;99.90;;;;;;5099411;28;20205;-85
2021/01/05 03:57:54;;;;;;;31.70;17.98;;;1.80;99.90;;;;;;5098639;28;20197;-85
2021/01/05 04:00:25;;;;;;;34.13;20.23;;;1.80;99.90;;;;;;5099860;28;20205;-85
2021/01/05 04:02:53;;;;;;;37.83;22.90;;;1.90;99.90;;;;;;5117757;28;20220;-85
2021/01/05 04:05:22;;;;;;;35.47;21.33;;;1.80;99.90;;;;;;5111399;28;20209;-84
2021/01/05 04:07:49;;;;;;;35.30;21.27;;;1.90;99.90;;;;;;5102970;28;20201;-83
2021/01/05 04:10:16;;;;;;;31.25;19.45;;;1.80;99.90;;;;;;5100043;28;20201;-85
2021/01/05 04:12:43;;;;;;;29.63;18.65;;;1.80;99.90;;;;;;5099747;28;20194;-84
2021/01/05 04:15:16;;;;;;;36.70;22.20;;;1.70;99.90;;;;;;5104240;28;20264;-84
2021/01/05 04:17:43;;;;;;;31.98;20.05;;;1.80;99.90;;;;;;5106909;28;20186;-84
2021/01/05 04:20:11;;;;;;;36.40;23.10;;;1.80;99.90;;;;;;5098821;28;20630;-84
2021/01/05 04:22:39;;;;;;;38.38;24.15;;;1.80;99.90;;;;;;5097876;28;20456;-84
2021/01/05 04:25:08;;;;;;;38.90;24.25;;;1.70;99.90;;;;;;5097856;28;20433;-85
2021/01/05 04:27:34;;;;;;;40.53;25.48;;;1.70;99.90;;;;;;5097949;28;20444;-85
2021/01/05 04:30:00;;;;;;;34.03;21.05;;;1.70;99.90;;;;;;5099416;28;20292;-85
2021/01/05 04:32:27;;;;;;;38.15;21.88;;;1.70;99.90;;;;;;5098579;28;20293;-84
2021/01/05 04:34:53;;;;;;;35.88;20.95;;;1.70;99.90;;;;;;5098348;28;20232;-84
2021/01/05 04:37:19;;;;;;;37.30;24.38;;;1.70;99.90;;;;;;5110843;28;20190;-84
2021/01/05 04:39:47;;;;;;;34.03;20.00;;;1.80;99.90;;;;;;5107527;28;20240;-83
2021/01/05 04:42:18;;;;;;;34.50;20.58;;;1.90;99.90;;;;;;5096856;28;20221;-84
2021/01/05 04:44:54;;;;;;;28.25;17.58;;;1.90;99.90;;;;;;5098187;28;20225;-84
2021/01/05 04:47:31;;;;;;;29.30;18.30;;;1.90;99.90;;;;;;5097627;28;20565;-84
2021/01/05 04:50:08;;;;;;;31.13;19.08;;;1.90;99.90;;;;;;5097027;28;20192;-84
2021/01/05 04:52:41;;;;;;;35.00;20.55;;;1.80;99.90;;;;;;5100206;28;20188;-84
2021/01/05 04:55:26;;;;;;;25.63;15.90;;;1.90;99.90;;;;;;5101213;28;20321;-83
2021/01/05 04:58:02;;;;;;;31.95;19.33;;;1.90;99.90;;;;;;5101098;28;20667;-84
2021/01/05 05:00:28;;;;;;;28.88;17.60;;;1.90;99.90;;;;;;5099179;28;20190;-83
2021/01/05 05:03:03;;;;;;;35.10;19.13;;;1.80;99.90;;;;;;5104647;28;20317;-83
2021/01/05 05:05:40;;;;;;;28.88;18.85;;;1.80;99.90;;;;;;5103934;28;20646;-83
2021/01/05 05:08:23;;;;;;;28.65;16.70;;;1.70;99.90;;;;;;5102002;28;20213;-83
2021/01/05 05:10:53;;;;;;;28.25;16.13;;;1.70;99.90;;;;;;5100529;28;20295;-83
2021/01/05 05:13:28;;;;;;;26.75;15.60;;;1.70;99.90;;;;;;5104590;28;20213;-83
2021/01/05 05:16:02;;;;;;;26.73;16.67;;;1.90;99.90;;;;;;5101344;28;20561;-84
2021/01/05 05:18:36;;;;;;;28.63;16.48;;;1.90;99.90;;;;;;5098975;28;20711;-84
2021/01/05 05:21:27;;;;;;;28.65;18.05;;;1.90;99.90;;;;;;5097752;28;20721;-84
2021/01/05 05:24:05;;;;;;;26.70;16.85;;;1.80;99.90;;;;;;5097954;28;20229;-84
2021/01/05 05:26:38;;;;;;;25.13;14.73;;;1.80;99.90;;;;;;5101391;28;20219;-84
2021/01/05 05:29:16;;;;;;;23.23;15.55;;;1.80;99.90;;;;;;5101741;28;20456;-83
2021/01/05 05:31:44;;;;;;;29.00;18.70;;;1.90;99.90;;;;;;5100921;28;20488;-83
2021/01/05 05:34:17;;;;;;;24.95;15.90;;;1.80;99.90;;;;;;5105007;28;20857;-84
2021/01/05 05:37:02;;;;;;;28.52;14.88;;;1.70;99.90;;;;;;5099553;28;20190;-84
2021/01/05 05:40:20;;;;;;;21.65;13.35;;;1.70;99.90;;;;;;5098920;28;20281;-84
2021/01/05 05:43:16;;;;;;;23.33;15.35;;;1.90;99.90;;;;;;5100225;28;20225;-84
2021/01/05 05:45:46;;;;;;;25.45;14.93;;;2.00;99.90;;;;;;5100577;28;20197;-84
2021/01/05 05:48:21;;;;;;;26.15;16.70;;;1.90;99.90;;;;;;5100092;28;20186;-84
2021/01/05 05:50:59;;;;;;;24.58;17.05;;;1.90;99.90;;;;;;5101193;28;20664;-85
2021/01/05 05:53:29;;;;;;;30.48;20.20;;;1.80;99.90;;;;;;5099773;28;20244;-85
2021/01/05 05:55:59;;;;;;;21.77;14.00;;;1.90;99.90;;;;;;5099931;28;20186;-85
2021/01/05 05:58:30;;;;;;;21.75;13.55;;;1.80;99.90;;;;;;5109843;28;20214;-85
2021/01/05 06:00:59;;;;;;;19.58;13.63;;;1.90;99.90;;;;;;5109615;28;20245;-84
2021/01/05 06:03:27;;;;;;;21.33;14.05;;;1.90;99.90;;;;;;5103959;28;20226;-85
2021/01/05 06:05:53;;;;;;;29.13;19.92;;;1.80;99.90;;;;;;5099415;28;20198;-84
2021/01/05 06:08:21;;;;;;;28.10;19.83;;;1.90;99.90;;;;;;5100922;28;20264;-84
2021/01/05 06:10:48;;;;;;;27.98;20.20;;;1.90;99.90;;;;;;5109572;28;20599;-84
2021/01/05 06:13:16;;;;;;;31.20;21.73;;;1.90;99.90;;;;;;5106548;28;20217;-84
2021/01/05 06:15:43;;;;;;;23.08;17.55;;;1.90;99.90;;;;;;5107430;28;20190;-84
2021/01/05 06:18:11;;;;;;;22.77;15.80;;;1.90;99.90;;;;;;5106827;28;20202;-83
2021/01/05 06:20:37;;;;;;;24.08;16.35;;;2.00;99.90;;;;;;5107368;28;20201;-83
2021/01/05 06:23:04;;;;;;;22.10;15.70;;;2.00;99.90;;;;;;5113968;28;20221;-88
2021/01/05 06:25:31;;;;;;;24.98;17.85;;;2.00;99.90;;;;;;5118419;28;20239;-84
2021/01/05 06:27:57;;;;;;;22.35;15.57;;;2.00;99.90;;;;;;5117783;28;20257;-83
2021/01/05 06:30:24;;;;;;;26.85;18.15;;;1.90;99.90;;;;;;5115923;28;20249;-87
2021/01/05 06:32:51;;;;;;;27.40;18.30;;;1.90;99.90;;;;;;5118231;28;20243;-85
2021/01/05 06:35:20;;;;;;;28.50;17.20;;;2.00;99.90;;;;;;5117945;28;20245;-83
2021/01/05 06:37:48;;;;;;;30.20;19.45;;;2.00;99.90;;;;;;5117717;28;20276;-83
2021/01/05 06:40:17;;;;;;;29.20;20.85;;;2.00;99.90;;;;;;5117894;28;20231;-83
2021/01/05 06:42:43;;;;;;;25.63;19.05;;;1.90;99.90;;;;;;5117466;28;20208;-83
2021/01/05 06:45:15;;;;;;;31.67;19.15;;;1.90;99.90;;;;;;5117640;28;20244;-83
2021/01/05 06:47:41;;;;;;;27.23;18.35;;;1.90;99.90;;;;;;5117740;28;20253;-84
2021/01/05 06:50:10;;;;;;;29.17;19.15;;;1.80;99.90;;;;;;5111964;28;20319;-84
2021/01/05 06:52:36;;;;;;;25.70;15.75;;;1.80;99.90;;;;;;5109250;28;20240;-83
2021/01/05 06:55:04;;;;;;;25.80;17.60;;;1.60;99.90;;;;;;5112110;28;20274;-84
2021/01/05 06:57:30;;;;;;;28.92;17.90;;;1.80;99.90;;;;;;5110479;28;20216;-84
2021/01/05 06:59:56;;;;;;;24.42;17.02;;;1.90;99.90;;;;;;5116174;28;20273;-84
2021/01/05 07:02:23;;;;;;;26.10;18.80;;;2.00;99.90;;;;;;5118373;28;20217;-83
2021/01/05 07:04:49;;;;;;;30.08;18.17;;;2.00;99.90;;;;;;5116329;28;20245;-84
2021/01/05 07:07:16;;;;;;;30.05;18.75;;;1.90;99.90;;;;;;5114658;28;20359;-83
2021/01/05 07:09:43;;;;;;;33.95;22.88;;;1.90;99.90;;;;;;5110665;28;20280;-84
2021/01/05 07:12:10;;;;;;;34.10;21.00;;;1.80;99.90;;;;;;5108263;28;20206;-84
2021/01/05 07:14:36;;;;;;;28.70;17.92;;;1.70;99.90;;;;;;5105934;28;20308;-84
2021/01/05 07:17:03;;;;;;;28.08;18.95;;;1.80;99.90;;;;;;5106854;28;20304;-84
2021/01/05 07:19:29;;;;;;;33.25;20.48;;;1.90;99.90;;;;;;5106221;28;20268;-84
2021/01/05 07:21:55;;;;;;;33.90;22.08;;;1.80;99.90;;;;;;5106732;28;20202;-84
2021/01/05 07:24:23;;;;;;;37.40;22.40;;;1.90;99.90;;;;;;5104583;28;20312;-84
2021/01/05 07:26:51;;;;;;;34.10;21.52;;;1.80;99.90;;;;;;5121298;28;20253;-85
2021/01/05 07:29:23;;;;;;;39.85;21.50;;;1.80;99.90;;;;;;5122000;28;20844;-83
2021/01/05 07:31:50;;;;;;;35.97;20.50;;;2.00;99.90;;;;;;5120932;28;20173;-83
2021/01/05 07:34:17;;;;;;;33.15;18.55;;;1.90;99.90;;;;;;5120459;28;20293;-83
2021/01/05 07:36:47;;;;;;;32.67;18.50;;;1.80;99.90;;;;;;5120816;28;20221;-83
2021/01/05 07:39:18;;;;;;;32.40;18.45;;;1.90;99.90;;;;;;5121352;28;20212;-87
2021/01/05 07:41:46;;;;;;;32.88;19.55;;;2.00;99.90;;;;;;5121843;28;20198;-84
2021/01/05 07:44:13;;;;;;;35.67;21.05;;;2.00;99.90;;;;;;5119156;28;20240;-84
2021/01/05 07:46:39;;;;;;;36.30;20.95;;;2.10;99.90;;;;;;5108111;28;20205;-85
2021/01/05 07:49:05;;;;;;;34.15;19.20;;;2.10;99.90;;;;;;5109345;28;20201;-84
2021/01/05 07:51:32;;;;;;;31.55;19.42;;;2.10;99.90;;;;;;5106891;28;20310;-84
2021/01/05 07:53:58;;;;;;;40.05;19.80;;;2.10;99.90;;;;;;5107618;28;20275;-85
2021/01/05 07:56:25;;;;;;;30.30;18.15;;;2.00;99.90;;;;;;5113999;28;20267;-84
2021/01/05 07:58:52;;;;;;;30.60;18.38;;;2.10;99.90;;;;;;5110976;28;20216;-84
2021/01/05 08:01:18;;;;;;;30.95;16.88;;;2.00;99.90;;;;;;5113602;28;20197;-84
2021/01/05 08:03:44;;;;;;;36.92;22.05;;;1.80;99.90;;;;;;5111967;28;20234;-84
2021/01/05 08:06:11;;;;;;;32.13;17.33;;;1.90;99.90;;;;;;5113007;28;20232;-83
2021/01/05 08:08:40;;;;;;;28.20;17.23;;;2.00;99.90;;;;;;5112121;28;20213;-84
2021/01/05 08:11:07;;;;;;;53.90;19.80;;;2.00;99.90;;;;;;5108878;28;20293;-84
2021/01/05 08:13:33;;;;;;;40.78;18.42;;;1.90;99.90;;;;;;5111853;28;20334;-83
2021/01/05 08:16:00;;;;;;;52.08;28.55;;;2.00;99.90;;;;;;5109672;28;20212;-84
2021/01/05 08:18:26;;;;;;;29.83;17.20;;;2.10;99.90;;;;;;5103641;28;20205;-84
2021/01/05 08:20:53;;;;;;;34.13;19.17;;;2.00;99.90;;;;;;5103619;28;20201;-84
2021/01/05 08:23:19;;;;;;;29.92;17.10;;;1.90;99.90;;;;;;5104741;28;20229;-83
2021/01/05 08:25:46;;;;;;;29.35;16.48;;;1.90;99.90;;;;;;5102980;28;20202;-83
2021/01/05 08:28:12;;;;;;;29.95;17.63;;;2.10;99.90;;;;;;5099013;28;20202;-85
2021/01/05 08:30:39;;;;;;;34.38;19.00;;;1.90;99.90;;;;;;5098385;28;20221;-85
2021/01/05 08:33:08;;;;;;;32.65;18.27;;;2.00;99.90;;;;;;5098890;28;20218;-84
2021/01/05 08:54:48;;;;;;;38.95;20.98;;;2.10;99.90;;;;;;4915343;28;20239;-84
2021/01/05 09:05:30;;;;;;;;;;;;;;;;;;;;;
2021/01/05 10:00:08;;;;;;;30.50;16.88;;;2.40;99.90;;;;;;4811897;29;20208;-83
2021/01/05 10:03:20;;;;;;;34.25;16.80;;;2.20;99.90;;;;;;4839146;29;20225;-82
2021/01/05 10:06:27;;;;;;;27.45;16.45;;;2.30;99.90;;;;;;4868140;29;20213;-82
2021/01/05 10:16:33;;;;;;;25.13;15.77;;;2.30;99.90;;;;;;4938091;29;20302;-81
2021/01/05 10:19:18;;;;;;;32.75;17.60;;;2.30;99.90;;;;;;5017849;28;20200;-82
2021/01/05 10:22:35;;;;;;;32.30;17.52;;;2.20;99.90;;;;;;5034342;28;20235;-81
2021/01/05 10:33:12;;;;;;;;;;;;;;;;;;;;;
2021/01/05 11:15:03;;;;;;;30.75;17.70;;;2.40;99.90;;;;;;4782410;29;20233;-84
2021/01/05 11:52:30;;;;;;;31.67;16.95;;;2.30;99.90;;;;;;4828768;29;20335;-80
2021/01/05 12:34:32;;;;;;;;;;;;;;;;;;;;;
2021/01/05 13:05:00;;;;;;;;;;;;;;;;;;;;;
2021/01/05 13:15:05;;;;;;;27.50;16.90;;;2.40;99.90;;;;;;4777427;30;20211;-85
2021/01/05 13:21:09;;;;;;;27.90;17.00;;;2.30;99.90;;;;;;4807726;29;20216;-84
2021/01/05 13:24:04;;;;;;;29.00;16.88;;;2.20;99.90;;;;;;4904795;29;20231;-84
2021/01/05 13:34:21;;;;;;;31.63;18.95;;;2.20;99.90;;;;;;4883448;28;20210;-83
2021/01/05 13:40:08;;;;;;;39.88;20.33;;;2.20;99.90;;;;;;5070387;22;20227;-83
2021/01/05 13:42:35;;;;;;;41.90;21.02;;;2.30;99.90;;;;;;5051708;28;20638;-84
2021/01/05 13:45:03;;;;;;;33.88;19.48;;;2.20;99.90;;;;;;5050108;28;20263;-85
2021/01/05 13:47:30;;;;;;;37.50;20.00;;;2.10;99.90;;;;;;5047878;28;20290;-85
2021/01/05 13:49:56;;;;;;;34.70;18.10;;;2.20;99.90;;;;;;5047749;28;20262;-84
2021/01/05 13:52:27;;;;;;;32.22;19.88;;;2.30;99.90;;;;;;5050390;28;20644;-85
2021/01/05 13:54:54;;;;;;;37.25;19.52;;;2.30;99.90;;;;;;5033461;28;20206;-85
2021/01/05 13:57:23;;;;;;;37.75;18.25;;;2.30;99.90;;;;;;5049171;28;20291;-84
2021/01/05 13:59:50;;;;;;;32.15;18.85;;;2.40;99.90;;;;;;5043827;28;20245;-85
2021/01/05 14:02:20;;;;;;;32.10;18.95;;;2.30;99.90;;;;;;5045370;28;20203;-85
2021/01/05 14:04:46;;;;;;;39.88;19.23;;;2.30;99.90;;;;;;5043253;28;20220;-85
2021/01/05 14:07:14;;;;;;;31.00;17.75;;;2.40;99.90;;;;;;5043583;28;20208;-84
2021/01/05 14:09:42;;;;;;;32.20;16.40;;;2.30;99.90;;;;;;5041793;28;20219;-84
2021/01/05 14:12:14;;;;;;;29.10;17.10;;;2.40;99.90;;;;;;5042486;28;20203;-86
2021/01/05 14:14:41;;;;;;;31.95;18.45;;;2.40;99.90;;;;;;5041166;28;20184;-85
2021/01/05 14:17:08;;;;;;;29.83;17.25;;;2.40;99.90;;;;;;5040753;28;20211;-84
2021/01/05 14:19:34;;;;;;;26.08;16.63;;;2.40;99.90;;;;;;5041381;28;20573;-84
2021/01/05 14:22:01;;;;;;;29.75;18.40;;;2.40;99.90;;;;;;5043167;28;20246;-85
2021/01/05 14:24:29;;;;;;;35.63;18.80;;;2.30;99.90;;;;;;5041059;28;20215;-85
2021/01/05 14:26:59;;;;;;;37.05;16.80;;;2.30;99.90;;;;;;5042296;28;20302;-84
2021/01/05 14:29:27;;;;;;;31.42;20.05;;;2.40;99.90;;;;;;5040580;28;20687;-85
2021/01/05 14:31:56;;;;;;;32.05;17.98;;;2.40;99.90;;;;;;5046579;28;20191;-84
2021/01/05 14:34:24;;;;;;;28.35;17.95;;;2.60;99.90;;;;;;5056807;28;20231;-83
2021/01/05 14:36:51;;;;;;;30.90;18.50;;;2.50;99.90;;;;;;5044533;28;20293;-85
2021/01/05 14:39:17;;;;;;;38.92;21.27;;;2.40;99.90;;;;;;5042949;28;20295;-84
2021/01/05 14:41:46;;;;;;;29.85;17.25;;;2.50;99.90;;;;;;5045556;28;20195;-84
2021/01/05 14:44:20;;;;;;;27.85;17.08;;;2.60;99.90;;;;;;5045857;28;20230;-85
2021/01/05 14:46:48;;;;;;;26.92;16.98;;;2.50;99.90;;;;;;5047223;28;20184;-85
2021/01/05 14:49:15;;;;;;;31.35;18.48;;;2.50;99.90;;;;;;5046547;28;20271;-85
2021/01/05 14:51:42;;;;;;;29.52;17.77;;;2.50;99.90;;;;;;5047110;28;20231;-85
2021/01/05 14:54:10;;;;;;;28.90;17.38;;;2.50;99.90;;;;;;5045027;28;20218;-84
2021/01/05 14:56:37;;;;;;;27.80;18.17;;;2.60;99.90;;;;;;5039746;28;20290;-85
2021/01/05 14:59:03;;;;;;;32.33;18.58;;;2.50;99.90;;;;;;5040172;28;20265;-85
2021/01/05 15:01:30;;;;;;;31.95;18.25;;;2.50;99.90;;;;;;5041373;28;20286;-85
2021/01/05 15:03:58;;;;;;;31.30;19.25;;;2.60;99.90;;;;;;5041425;28;20247;-85
2021/01/05 15:06:27;;;;;;;29.80;19.15;;;2.50;99.90;;;;;;5041093;28;20263;-85
2021/01/05 15:08:55;;;;;;;25.85;12.77;;;2.50;99.90;;;;;;5042315;28;20224;-84
2021/01/05 15:11:23;;;;;;;29.67;18.63;;;2.60;99.90;;;;;;5046293;28;20214;-85
2021/01/05 15:13:51;;;;;;;29.98;18.50;;;2.60;99.90;;;;;;5056148;28;20184;-83
2021/01/05 15:16:18;;;;;;;29.73;19.73;;;2.60;99.90;;;;;;5045281;28;20202;-84
2021/01/05 15:18:46;;;;;;;31.13;19.50;;;2.60;99.90;;;;;;5042389;28;20223;-85
2021/01/05 15:21:13;;;;;;;32.22;19.10;;;2.60;99.90;;;;;;5043665;28;20207;-84
2021/01/05 15:23:40;;;;;;;26.88;16.95;;;2.70;99.90;;;;;;5045461;28;20223;-84
2021/01/05 15:26:07;;;;;;;33.60;18.63;;;2.60;99.90;;;;;;5050395;28;20211;-83
2021/01/05 15:28:33;;;;;;;29.40;18.98;;;2.60;99.90;;;;;;5046588;28;20243;-83
2021/01/05 15:31:00;;;;;;;26.25;17.17;;;2.70;99.90;;;;;;5046521;28;20286;-85
2021/01/05 15:33:26;;;;;;;32.38;19.55;;;2.50;99.90;;;;;;5047995;28;20196;-85
2021/01/05 15:35:53;;;;;;;32.90;19.10;;;2.60;99.90;;;;;;5046985;28;20203;-85
2021/01/05 15:38:19;;;;;;;31.25;18.23;;;2.60;99.90;;;;;;5044755;28;20232;-85
2021/01/05 15:40:46;;;;;;;27.23;17.50;;;2.70;99.90;;;;;;5043421;28;20279;-84
2021/01/05 15:43:12;;;;;;;35.15;22.25;;;2.90;99.90;;;;;;5049348;28;20231;-84
2021/01/05 15:45:39;;;;;;;31.58;19.40;;;2.80;99.90;;;;;;5051004;28;20280;-83
2021/01/05 15:48:07;;;;;;;30.33;19.95;;;2.70;99.90;;;;;;5051619;28;20226;-85
2021/01/05 15:50:34;;;;;;;32.33;20.52;;;2.60;99.90;;;;;;5049993;28;20623;-84
2021/01/05 15:53:01;;;;;;;33.88;19.77;;;2.70;99.90;;;;;;5044964;28;20290;-84
2021/01/05 15:55:28;;;;;;;35.38;19.98;;;2.70;99.90;;;;;;5044251;28;20211;-84
2021/01/05 15:57:55;;;;;;;36.88;21.00;;;2.70;99.90;;;;;;5049190;28;20204;-84
2021/01/05 16:00:23;;;;;;;31.15;19.67;;;2.70;99.90;;;;;;5044188;28;20199;-84
2021/01/05 16:02:49;;;;;;;35.88;20.13;;;2.80;99.90;;;;;;5044548;28;20294;-85
2021/01/05 16:05:16;;;;;;;39.38;22.00;;;2.80;99.90;;;;;;5043852;28;20287;-84
2021/01/05 16:07:51;;;;;;;36.88;19.23;;;2.80;99.90;;;;;;5046390;28;20285;-84
2021/01/05 16:10:18;;;;;;;33.88;20.48;;;2.70;99.90;;;;;;5046129;28;20188;-84
2021/01/05 16:12:44;;;;;;;39.22;19.60;;;2.80;99.90;;;;;;5045380;28;20712;-83
2021/01/05 16:15:13;;;;;;;42.65;21.25;;;2.80;99.90;;;;;;5044407;28;20263;-84
2021/01/05 16:17:39;;;;;;;40.45;21.05;;;2.80;99.90;;;;;;5049661;28;20243;-85
2021/01/05 16:20:07;;;;;;;37.90;19.27;;;2.90;99.90;;;;;;5047779;28;20671;-85
2021/01/05 16:22:33;;;;;;;46.15;22.27;;;2.90;99.90;;;;;;5045764;28;20210;-84
2021/01/05 16:25:00;;;;;;;36.30;21.77;;;3.00;99.90;;;;;;5044953;28;20704;-85
2021/01/05 16:27:26;;;;;;;32.40;19.05;;;3.00;99.90;;;;;;5044021;28;20214;-85
2021/01/05 16:29:52;;;;;;;45.65;19.65;;;2.90;99.90;;;;;;5044485;28;20220;-84
2021/01/05 16:32:20;;;;;;;44.53;22.45;;;2.90;99.90;;;;;;5045403;28;20612;-84
2021/01/05 16:34:46;;;;;;;50.03;23.85;;;3.00;99.90;;;;;;5047209;28;20195;-84
2021/01/05 16:37:13;;;;;;;39.75;20.48;;;2.90;99.90;;;;;;5044658;28;20243;-85
2021/01/05 16:39:40;;;;;;;44.95;20.90;;;2.80;99.90;;;;;;5042927;28;20752;-85
2021/01/05 16:42:06;;;;;;;44.28;24.05;;;2.80;99.90;;;;;;5045553;28;20290;-84
2021/01/05 16:44:33;;;;;;;53.67;22.20;;;2.90;99.90;;;;;;5045247;28;20223;-84
2021/01/05 16:46:59;;;;;;;55.53;25.10;;;2.80;99.90;;;;;;5044299;28;20271;-84
2021/01/05 16:49:27;;;;;;;58.90;25.67;;;2.80;99.90;;;;;;5045141;28;20315;-84
2021/01/05 16:51:54;;;;;;;54.22;25.45;;;2.90;99.90;;;;;;5050606;28;20271;-83
2021/01/05 16:54:21;;;;;;;51.72;25.70;;;2.80;99.90;;;;;;5048282;28;20210;-84
2021/01/05 16:56:47;;;;;;;51.28;23.65;;;2.80;99.90;;;;;;5048115;28;20212;-84
2021/01/05 16:59:15;;;;;;;42.13;23.73;;;2.80;99.90;;;;;;5047665;28;20224;-84
2021/01/05 17:01:43;;;;;;;45.60;22.77;;;2.90;99.90;;;;;;5046137;28;20212;-85
2021/01/05 17:04:09;;;;;;;57.90;26.80;;;2.80;99.90;;;;;;5045725;28;20223;-84
2021/01/05 17:06:39;;;;;;;45.53;21.95;;;2.90;99.90;;;;;;5043307;28;20207;-84
2021/01/05 17:09:07;;;;;;;42.35;21.83;;;2.90;99.90;;;;;;5042100;28;20282;-85
2021/01/05 17:11:33;;;;;;;40.28;21.33;;;2.80;99.90;;;;;;5043382;28;20263;-85
2021/01/05 17:14:00;;;;;;;44.47;22.45;;;2.80;99.90;;;;;;5042215;28;20275;-85
2021/01/05 17:16:26;;;;;;;39.08;23.08;;;2.80;99.90;;;;;;5041526;28;20230;-85